createdAt,value
2023-03-17T12:44:15.474Z,23.08
2023-03-17T12:45:19.792Z,23.31
2023-03-17T12:46:15.568Z,23.67
2023-03-17T12:47:15.545Z,23.70
2023-03-17T12:48:15.644Z,23.90
2023-03-17T12:49:17.574Z,24.49
2023-03-17T12:50:15.519Z,24.72
2023-03-17T12:51:15.620Z,24.08
2023-03-17T12:52:24.577Z,23.84
2023-03-17T12:53:15.559Z,24.36
2023-03-17T12:54:15.553Z,24.63
2023-03-17T12:55:15.544Z,24.84
2023-03-17T12:56:15.520Z,25.05
2023-03-17T12:57:15.637Z,25.27
2023-03-17T12:58:15.561Z,25.22
2023-03-17T12:59:15.538Z,24.69
2023-03-17T13:00:15.620Z,23.80
2023-03-17T13:01:15.560Z,23.76
2023-03-17T13:02:15.560Z,23.74
2023-03-17T13:03:15.543Z,23.68
2023-03-17T13:04:15.589Z,23.40
2023-03-17T13:05:38.872Z,23.18
2023-03-17T13:06:15.701Z,23.35
2023-03-17T13:07:15.599Z,23.55
2023-03-17T13:08:15.678Z,23.42
2023-03-17T13:09:15.550Z,23.43
2023-03-17T13:10:15.543Z,23.34
2023-03-17T13:11:15.620Z,22.70
2023-03-17T13:12:15.573Z,22.30
2023-03-17T13:13:15.610Z,22.06
2023-03-17T13:14:15.560Z,22.08
2023-03-17T13:15:15.694Z,21.91
2023-03-17T13:16:15.598Z,21.63
2023-03-17T13:17:15.664Z,21.53
2023-03-17T13:18:15.637Z,21.55
2023-03-17T13:19:15.615Z,21.56
2023-03-17T13:20:18.097Z,21.68
2023-03-17T13:21:22.236Z,21.74
2023-03-17T13:22:15.808Z,21.61
2023-03-17T13:23:18.177Z,21.60
2023-03-17T13:24:18.143Z,21.67
2023-03-17T13:25:18.686Z,21.28
2023-03-17T13:26:15.746Z,21.44
2023-03-17T13:27:18.666Z,21.44
2023-03-17T13:28:15.911Z,21.52
2023-03-17T13:29:23.641Z,21.62
2023-03-17T13:30:18.496Z,21.61
2023-03-17T13:31:18.624Z,21.63
2023-03-17T13:32:18.632Z,21.43
2023-03-17T13:33:18.413Z,20.93
2023-03-17T13:34:18.875Z,20.98
2023-03-17T13:35:15.961Z,21.00
2023-03-17T13:36:15.769Z,20.99
2023-03-17T13:37:15.911Z,21.03
2023-03-17T13:38:15.879Z,21.07
2023-03-17T13:39:20.055Z,21.18
2023-03-17T13:40:15.962Z,21.28
2023-03-17T13:41:15.883Z,21.24
2023-03-17T13:42:18.021Z,20.95
2023-03-17T13:43:19.239Z,20.65
2023-03-17T13:44:15.900Z,20.50
2023-03-17T13:45:18.093Z,20.51
2023-03-17T13:46:15.970Z,20.79
2023-03-17T13:47:16.183Z,20.74
2023-03-17T13:48:19.217Z,20.76
2023-03-17T13:49:16.037Z,20.62
2023-03-17T13:50:18.550Z,20.44
2023-03-17T13:51:24.180Z,20.27
2023-03-17T13:52:19.206Z,20.18
2023-03-17T13:53:15.930Z,20.16
2023-03-17T13:54:16.855Z,20.20
2023-03-17T13:55:24.110Z,20.20
2023-03-17T13:56:16.142Z,20.36
2023-03-17T13:57:19.649Z,20.37
2023-03-17T13:58:15.887Z,20.34
2023-03-17T13:59:15.916Z,20.18
2023-03-17T14:00:20.538Z,20.03
2023-03-17T14:01:22.549Z,20.02
2023-03-17T14:02:15.938Z,19.70
2023-03-17T14:03:17.739Z,19.48
2023-03-17T14:04:16.660Z,19.35
2023-03-17T14:05:15.971Z,19.14
2023-03-17T14:06:16.223Z,18.89
2023-03-17T14:07:15.927Z,18.66
2023-03-17T14:08:16.526Z,18.36
2023-03-17T14:09:18.711Z,18.22
2023-03-17T14:10:18.684Z,18.07
2023-03-17T14:11:16.913Z,17.84
2023-03-17T14:12:16.363Z,17.47
2023-03-17T14:13:15.905Z,17.12
2023-03-17T14:14:29.650Z,16.93
2023-03-17T14:15:24.503Z,16.81
2023-03-17T14:16:16.364Z,16.70
2023-03-17T14:17:15.911Z,16.69
2023-03-17T14:18:16.044Z,16.71
2023-03-17T14:19:15.968Z,16.73
2023-03-17T14:20:16.163Z,16.75
2023-03-17T14:21:16.093Z,16.58
2023-03-17T14:22:18.993Z,16.62
2023-03-17T14:23:18.866Z,16.56
2023-03-17T14:24:19.548Z,16.58
2023-03-17T14:25:16.085Z,16.64
2023-03-17T14:26:18.314Z,16.61
2023-03-17T14:27:16.295Z,16.54
2023-03-17T14:28:15.968Z,16.51
2023-03-17T14:29:16.278Z,16.47
2023-03-17T14:30:16.076Z,16.45
2023-03-17T14:31:19.093Z,16.43
2023-03-17T14:32:16.132Z,16.39
2023-03-17T14:33:16.127Z,16.38
2023-03-17T14:34:16.188Z,16.33
2023-03-17T14:35:16.105Z,16.22
2023-03-17T14:36:16.169Z,16.19
2023-03-17T14:37:16.234Z,16.15
2023-03-17T14:38:16.161Z,16.17
2023-03-17T14:39:16.103Z,16.08
2023-03-17T14:40:16.505Z,16.18
2023-03-17T14:41:16.160Z,16.19
2023-03-17T14:42:16.173Z,16.18
2023-03-17T14:43:16.191Z,16.20
2023-03-17T14:44:18.081Z,16.16
2023-03-17T14:45:16.216Z,16.33
2023-03-17T14:46:16.303Z,16.46
2023-03-17T14:47:16.194Z,16.47
2023-03-17T14:48:16.154Z,16.42
2023-03-17T14:49:16.177Z,16.14
2023-03-17T14:50:18.756Z,15.97
2023-03-17T14:51:16.287Z,16.04
2023-03-17T14:52:16.268Z,16.02
2023-03-17T14:53:16.209Z,15.99
2023-03-17T14:54:16.189Z,16.02
2023-03-17T14:55:16.183Z,16.01
2023-03-17T14:56:16.260Z,15.97
2023-03-17T14:57:16.159Z,15.92
2023-03-17T14:58:16.204Z,15.90
2023-03-17T14:59:16.227Z,15.89
2023-03-17T15:00:16.122Z,15.91
2023-03-17T15:01:19.400Z,15.91
2023-03-17T15:02:16.214Z,15.91
2023-03-17T15:03:16.219Z,15.90
2023-03-17T15:04:16.245Z,15.84
2023-03-17T15:05:16.274Z,15.86
2023-03-17T15:06:16.211Z,15.84
2023-03-17T15:07:20.717Z,15.84
2023-03-17T15:08:16.242Z,15.79
2023-03-17T15:21:29.522Z,16.13
2023-03-17T15:22:29.470Z,16.08
2023-03-17T15:23:29.532Z,16.09
2023-03-17T15:24:29.618Z,16.05
2023-03-17T15:25:29.713Z,16.07
2023-03-17T15:26:30.580Z,16.08
2023-03-17T15:27:29.675Z,16.31
2023-03-17T15:28:29.571Z,16.33
2023-03-17T15:29:29.760Z,16.25
2023-03-17T15:30:37.432Z,16.12
2023-03-17T15:31:29.621Z,16.17
2023-03-17T15:32:29.681Z,16.26
2023-03-17T15:33:29.714Z,16.67
2023-03-17T15:34:31.903Z,15.57
2023-03-17T15:35:38.999Z,15.23
2023-03-17T15:38:03.454Z,15.18
2023-03-17T15:38:20.432Z,15.15
2023-03-17T15:39:12.517Z,15.17
2023-03-17T15:40:22.407Z,15.19
2023-03-17T15:41:14.043Z,15.22
2023-03-17T15:42:47.486Z,15.17
2023-03-17T15:43:32.543Z,15.09
2023-03-17T15:44:13.951Z,15.15
